createdAt,value
2022-07-29T00:00:17.402Z,76.17
2022-07-29T00:05:25.421Z,76.7
2022-07-29T00:10:32.634Z,76.77
2022-07-29T00:15:40.558Z,77.25
2022-07-29T00:20:48.032Z,77.89
2022-07-29T00:25:54.864Z,78.31
2022-07-29T00:31:02.152Z,76.98
2022-07-29T00:36:08.657Z,77.85
2022-07-29T00:41:16.690Z,78.54
2022-07-29T00:46:24.844Z,79.36
2022-07-29T00:51:33.116Z,79.44
2022-07-29T00:56:40.678Z,79.65
2022-07-29T01:02:27.473Z,79.98001
2022-07-29T01:07:40.420Z,80.71
2022-07-29T01:12:48.339Z,81.21
2022-07-29T01:17:55.613Z,81.45
2022-07-29T01:23:03.859Z,81.7
2022-07-29T01:28:11.832Z,81.62001
2022-07-29T01:33:19.981Z,81.71
2022-07-29T01:38:27.766Z,82.06
2022-07-29T01:43:36.062Z,82.31
2022-07-29T01:48:44.119Z,82.07
2022-07-29T01:53:51.929Z,82.11
2022-07-29T01:59:00.091Z,82.31
2022-07-29T02:04:08.050Z,83.04
2022-07-29T02:09:15.777Z,83.06
2022-07-29T02:14:24.765Z,82.68001
2022-07-29T02:19:33.257Z,82.44
2022-07-29T02:24:41.261Z,82.1
2022-07-29T02:29:48.867Z,82.40001
2022-07-29T02:34:56.901Z,82.34
2022-07-29T02:40:04.099Z,82.57
2022-07-29T02:45:11.233Z,82.33001
2022-07-29T02:50:19.073Z,82.63
2022-07-29T02:55:27.109Z,83.09
2022-07-29T03:00:35.324Z,83.18
2022-07-29T03:05:43.954Z,83.56
2022-07-29T03:10:50.762Z,83.31
2022-07-29T03:15:58.396Z,83.76
2022-07-29T03:21:05.906Z,83.83
2022-07-29T03:26:13.485Z,83.54
2022-07-29T03:31:21.421Z,84.13
2022-07-29T03:36:29.560Z,84.63
2022-07-29T03:41:37.716Z,84.37
2022-07-29T03:46:45.899Z,83.97
2022-07-29T03:51:54.314Z,83.34
2022-07-29T03:57:02.282Z,83.48001
2022-07-29T04:02:11.082Z,83.35
2022-07-29T04:07:19.499Z,83.51001
2022-07-29T04:12:28.153Z,83.28
2022-07-29T04:17:43.240Z,82.03
2022-07-29T04:22:51.175Z,81.7
2022-07-29T04:27:58.336Z,81.19
2022-07-29T04:33:06.171Z,80.31
2022-07-29T04:38:14.635Z,79.39
2022-07-29T04:43:23.070Z,78.12
2022-07-29T04:48:30.980Z,77.89
2022-07-29T04:53:39.240Z,77.01
2022-07-29T04:58:47.289Z,75.58
2022-07-29T05:03:54.508Z,73.99
2022-07-29T05:09:02.394Z,73.58
2022-07-29T05:14:09.581Z,74.18
2022-07-29T05:19:17.593Z,74.14
2022-07-29T05:24:27.009Z,74.04
2022-07-29T05:29:34.336Z,73.12
2022-07-29T05:34:42.499Z,72.3
2022-07-29T05:39:50.695Z,72.16001
2022-07-29T05:44:58.549Z,72.07
2022-07-29T05:50:05.819Z,73.25
2022-07-29T05:55:12.955Z,72.12
2022-07-29T06:00:20.752Z,71.28
2022-07-29T06:05:29.013Z,72.16001
2022-07-29T06:10:36.218Z,72.28
2022-07-29T06:15:44.828Z,71.84
2022-07-29T06:20:52.094Z,72.32
2022-07-29T06:38:52.331Z,73.81
2022-07-29T06:43:59.561Z,75.38
2022-07-29T06:49:06.818Z,75.66
2022-07-29T06:54:15.174Z,75.97
2022-07-29T06:59:22.716Z,76.43
2022-07-29T07:04:29.736Z,76.91
2022-07-29T07:09:38.684Z,77.49
2022-07-29T07:14:46.008Z,77.6
2022-07-29T07:19:53.629Z,78.55
2022-07-29T07:25:01.046Z,79.18
2022-07-29T07:30:09.131Z,79.89
2022-07-29T07:35:16.158Z,79.52
2022-07-29T07:40:24.967Z,79.38
2022-07-29T07:45:33.101Z,80.7
2022-07-29T07:50:40.893Z,80.99
2022-07-29T07:55:48.482Z,80.89
2022-07-29T08:00:55.932Z,80.44001
2022-07-29T08:06:05.016Z,79.5
2022-07-29T08:11:12.239Z,78.38
2022-07-29T08:16:20.160Z,78.25
2022-07-29T08:21:28.342Z,77.24
2022-07-29T08:26:36.013Z,75.98001
2022-07-29T08:31:44.356Z,75.13
2022-07-29T08:36:51.465Z,75.18
2022-07-29T08:42:00.245Z,75.7
2022-07-29T08:47:07.783Z,76.30001
2022-07-29T08:52:15.607Z,76.22
2022-07-29T08:57:22.857Z,75.75
2022-07-29T09:02:30.054Z,74.79
2022-07-29T09:07:38.999Z,73.92
2022-07-29T09:12:46.445Z,73.3
2022-07-29T09:17:54.176Z,73.48001
2022-07-29T09:23:02.003Z,72.79
2022-07-29T09:28:07.974Z,73.61
2022-07-29T09:33:15.866Z,74.01
2022-07-29T09:38:24.064Z,74.41
2022-07-29T09:43:32.090Z,74.98001
2022-07-29T09:48:40.017Z,75.8
2022-07-29T09:53:48.800Z,76.09
2022-07-29T09:58:56.294Z,75.33
2022-07-29T10:04:09.714Z,73.81
2022-07-29T10:09:16.414Z,73.37
2022-07-29T10:14:24.251Z,72.37
2022-07-29T10:19:32.037Z,69.88
2022-07-29T10:24:39.355Z,70.84
2022-07-29T10:29:51.481Z,61.92
2022-07-29T10:40:06.019Z,52.09
2022-07-29T10:45:14.675Z,48.74
2022-07-29T10:50:22.528Z,48.83
2022-07-29T10:55:30.681Z,50.23
2022-07-29T11:00:38.510Z,45.4
2022-07-29T11:05:46.361Z,46.84
2022-07-29T11:10:53.814Z,47.06
2022-07-29T11:16:01.960Z,46.7
2022-07-29T11:21:11.092Z,44.28
2022-07-29T11:26:17.896Z,46.6
2022-07-29T11:31:25.768Z,47.86
2022-07-29T11:36:33.477Z,48.21
2022-07-29T11:41:42.014Z,48.27
2022-07-29T11:46:49.781Z,48.38
2022-07-29T11:51:57.727Z,49.96
2022-07-29T11:57:05.940Z,50.94
2022-07-29T12:02:13.425Z,50.64
2022-07-29T12:07:20.629Z,51.4
2022-07-29T12:12:28.385Z,52.06
2022-07-29T12:17:36.529Z,51.96
2022-07-29T12:22:44.393Z,52.8
2022-07-29T12:27:52.084Z,53.24
2022-07-29T12:32:58.994Z,53.26
2022-07-29T12:44:45.589Z,54.74
2022-07-29T12:49:51.028Z,54.42
2022-07-29T12:54:59.361Z,52.22
2022-07-29T13:00:06.328Z,51.8
2022-07-29T13:05:13.951Z,54.07
2022-07-29T13:10:22.774Z,52.92
2022-07-29T13:15:29.537Z,54.57
2022-07-29T13:20:36.104Z,55.56
2022-07-29T13:25:43.299Z,56.26
2022-07-29T13:30:51.062Z,56.68
2022-07-29T13:35:58.519Z,57.33
2022-07-29T13:41:06.674Z,57.92
2022-07-29T13:46:15.110Z,56.98
2022-07-29T13:51:22.100Z,55.58
2022-07-29T13:56:30.451Z,55.11
2022-07-29T14:01:37.691Z,54.96
2022-07-29T14:06:45.947Z,54.55
2022-07-29T14:11:54.471Z,55.38
2022-07-29T14:17:02.886Z,56.26
2022-07-29T14:22:11.314Z,57.88
2022-07-29T14:27:17.972Z,59.26
2022-07-29T14:32:24.820Z,59.73
2022-07-29T14:37:31.827Z,58.2
2022-07-29T14:42:39.674Z,58.57
2022-07-29T14:47:47.712Z,59.22
2022-07-29T14:52:56.526Z,59.31
2022-07-29T14:58:03.856Z,60.1
2022-07-29T15:03:11.615Z,60.04
2022-07-29T15:08:19.989Z,60.32
2022-07-29T15:13:28.440Z,59.66
2022-07-29T15:18:35.997Z,58.6
2022-07-29T15:23:44.582Z,56.96
2022-07-29T15:28:52.093Z,57.26
2022-07-29T15:34:01.214Z,57.46
2022-07-29T15:39:08.456Z,57.78
2022-07-29T15:44:16.058Z,59.08
2022-07-29T15:49:22.855Z,59.41
2022-07-29T15:54:31.803Z,58.99
2022-07-29T15:59:39.133Z,58.15
2022-07-29T16:04:46.315Z,58.48
2022-07-29T16:09:54.730Z,57.62
2022-07-29T16:15:01.792Z,57.14
2022-07-29T16:20:09.783Z,56.9
2022-07-29T16:25:17.893Z,58.04
2022-07-29T16:30:25.097Z,59.48
2022-07-29T16:35:32.039Z,59.79
2022-07-29T16:42:10.835Z,61.48
2022-07-29T16:47:17.218Z,62.2
2022-07-29T16:52:23.714Z,62.68
2022-07-29T16:57:32.014Z,62.98
2022-07-29T17:02:38.972Z,63.26
2022-07-29T17:07:46.320Z,64.21
2022-07-29T17:12:53.380Z,64.81
2022-07-29T17:18:01.323Z,65.25
2022-07-29T17:23:08.561Z,66.14
2022-07-29T17:28:15.608Z,66.81
2022-07-29T17:33:23.744Z,66.84
2022-07-29T17:38:32.327Z,66.13
2022-07-29T17:43:40.677Z,66.16001
2022-07-29T17:48:48.925Z,66.47
2022-07-29T17:53:56.854Z,67.51
2022-07-29T17:59:04.975Z,68.88
2022-07-29T18:04:12.473Z,69.73001
2022-07-29T18:09:20.392Z,70.38
2022-07-29T18:14:29.127Z,71.11
2022-07-29T18:19:36.713Z,72.38
2022-07-29T18:24:44.835Z,73.18
2022-07-29T18:29:52.533Z,73.5
2022-07-29T18:34:59.555Z,74.17
2022-07-29T18:40:07.225Z,74.84
2022-07-29T18:45:16.287Z,75.09
2022-07-29T18:50:24.218Z,75.52
2022-07-29T18:55:32.628Z,76.16001
2022-07-29T19:00:40.386Z,76.47
2022-07-29T19:05:49.016Z,76.91
2022-07-29T19:10:57.283Z,77.44
2022-07-29T19:16:04.978Z,77.68
2022-07-29T19:21:12.923Z,78.4
2022-07-29T19:26:21.251Z,78.67
2022-07-29T19:31:29.081Z,79.3
2022-07-29T19:36:36.094Z,79.7
2022-07-29T19:41:43.804Z,79.42
2022-07-29T19:46:51.823Z,80.2
2022-07-29T19:52:00.164Z,80.35
2022-07-29T19:57:07.154Z,80.18001
2022-07-29T20:02:15.296Z,80.47
2022-07-29T20:07:22.693Z,80.41
2022-07-29T20:12:30.516Z,80.53
2022-07-29T20:17:38.326Z,80.88
2022-07-29T20:22:45.368Z,81.72
2022-07-29T20:27:53.213Z,82.21
2022-07-29T20:33:00.411Z,82.6
2022-07-29T20:38:08.258Z,82.62
2022-07-29T20:43:17.097Z,82.71
2022-07-29T20:48:24.768Z,82.49
2022-07-29T20:53:32.839Z,82.98
2022-07-29T20:58:40.228Z,83.18
2022-07-29T21:03:47.452Z,83.44001
2022-07-29T21:08:55.292Z,83.69
2022-07-29T21:14:03.184Z,83.94
2022-07-29T21:19:10.346Z,83.94
2022-07-29T21:24:18.616Z,84.21
2022-07-29T21:29:25.368Z,84.3
2022-07-29T21:34:33.490Z,84.63
2022-07-29T21:39:41.937Z,84.79
2022-07-29T21:44:50.682Z,85.29
2022-07-29T21:49:58.584Z,85.44001
2022-07-29T21:55:06.747Z,85.51001
2022-07-29T22:00:16.129Z,85.56
2022-07-29T22:05:23.511Z,85.62
2022-07-29T22:10:31.319Z,85.7
2022-07-29T22:15:39.141Z,86.11
2022-07-29T22:20:47.252Z,87.02
2022-07-29T22:41:16.419Z,84.53
2022-07-29T22:46:22.910Z,84.19001
2022-07-29T23:07:00.745Z,83.33
2022-07-29T23:12:07.936Z,82.91
2022-07-29T23:17:16.219Z,82.82001
2022-07-29T23:22:24.250Z,81.56
2022-07-29T23:27:31.479Z,79.8
2022-07-29T23:37:47.514Z,77.87
2022-07-29T23:42:55.594Z,77.35
